Kathy C — 2CTI7 — position and weather

sailwx.info

Track history (hours):
 
Tides and Currents Weather Stations Pressure Air Temp Water Temp Dewpoint Dewpoint Depression Visibility Wind Speed Wind Dir Waves Ship Positions

Kathy C

Last reported at 2014-Dec-14 14:32 UTC. Time now 2014-Dec-22 11:22 UTC.
Position N 37°30' W 000°49'.

Length 106 m; draft 6.8 m.

Type: Cargo ship. MMSI: 235075591.

Date/timePositionNaut miles runAvg speedWind from/ knotsBaromVisibWave heightAir tempDewpointWater temp
2014-Dec-14 14:32N 37°30' W 000°49'9 9.0
2014-Dec-14 13:33N 37°34' W 000°59'1 0.8
2014-Dec-14 12:24N 37°34' W 000°58'0 0.0
2014-Dec-14 11:33N 37°34' W 000°58'0 0.0
2014-Dec-14 10:33N 37°34' W 000°58'0 0.0
2014-Dec-14 09:33N 37°34' W 000°58'0 0.0
2014-Dec-14 08:33N 37°34' W 000°58'0 0.0
2014-Dec-14 07:33N 37°34' W 000°58'0 0.0
2014-Dec-14 06:33N 37°34' W 000°58'0 0.0
2014-Dec-14 05:33N 37°34' W 000°58'0 0.0
2014-Dec-14 04:33N 37°34' W 000°58'0 0.0
2014-Dec-14 03:33N 37°34' W 000°58'0 0.0
2014-Dec-14 02:33N 37°34' W 000°58'0 0.0
2014-Dec-14 01:33N 37°34' W 000°58'0 0.0
2014-Dec-14 00:24N 37°34' W 000°58'0 0.0
2014-Dec-13 22:09N 37°34' W 000°58'0 0.0
2014-Dec-13 21:33N 37°34' W 000°58'0 0.0
2014-Dec-13 19:33N 37°34' W 000°58'0 0.0
2014-Dec-13 18:33N 37°34' W 000°58'6 6.1
2014-Dec-13 17:33N 37°31' W 001°04'4 0.1
2014-Dec-11 17:33N 37°33' W 001°01'3 2.5
2014-Dec-11 16:32N 37°34' W 000°58'0 0.0
2014-Dec-11 15:32N 37°34' W 000°58'0 0.0
2014-Dec-11 14:32N 37°34' W 000°58'0 0.0
2014-Dec-11 13:32N 37°34' W 000°58'0 0.0
2014-Dec-11 12:32N 37°34' W 000°58'0 0.0
2014-Dec-11 11:32N 37°34' W 000°58'0 0.0
2014-Dec-11 10:32N 37°34' W 000°58'0 0.0
2014-Dec-11 09:32N 37°34' W 000°58'0 0.0
2014-Dec-11 03:32N 37°34' W 000°58'0 0.0
2014-Dec-11 02:32N 37°34' W 000°58'0 0.0
2014-Dec-11 01:32N 37°34' W 000°58'0 0.0
2014-Dec-11 00:32N 37°34' W 000°58'0 0.0
2014-Dec-10 23:32N 37°34' W 000°58'0 0.0
2014-Dec-10 22:32N 37°34' W 000°58'0 0.0
2014-Dec-10 21:32N 37°34' W 000°58'0 0.0
2014-Dec-10 20:32N 37°34' W 000°58'0 0.0
2014-Dec-10 19:32N 37°34' W 000°58'0 0.0
2014-Dec-10 18:32N 37°34' W 000°58'0 0.0
2014-Dec-10 17:32N 37°34' W 000°58'0 0.0
2014-Dec-10 16:32N 37°34' W 000°58'0 0.0
2014-Dec-10 15:32N 37°34' W 000°58'0 0.0
2014-Dec-10 14:32N 37°34' W 000°58'0 0.0
2014-Dec-10 13:26N 37°34' W 000°58'3 4.0
2014-Dec-10 12:33N 37°31' W 000°56'16011.4
2014-Dec-09 22:31N 38°48' E 002°02'1111.4
2014-Dec-09 21:33N 38°56' E 002°12'1211.6
2014-Dec-09 20:33N 39°06' E 002°20'1212.0
2014-Dec-09 19:33N 39°17' E 002°26'1211.9
2014-Dec-09 18:33N 39°27' E 002°35'6 6.0
2014-Dec-09 17:31N 39°33' E 002°38'0 0.0
2014-Dec-09 16:31N 39°33' E 002°38'0 0.0
2014-Dec-09 15:31N 39°33' E 002°38'0 0.0
2014-Dec-09 14:31N 39°33' E 002°38'0 0.0
2014-Dec-09 13:31N 39°33' E 002°38'0 0.0
2014-Dec-09 12:31N 39°33' E 002°38'0 0.0
2014-Dec-09 11:25N 39°33' E 002°38'0 0.0
2014-Dec-09 10:31N 39°33' E 002°38'0 0.0
2014-Dec-09 09:31N 39°33' E 002°38'0 0.0
2014-Dec-09 08:31N 39°33' E 002°38'0 0.0
2014-Dec-09 07:31N 39°33' E 002°38'0 0.0
2014-Dec-09 06:28N 39°33' E 002°38'0 0.0
2014-Dec-09 05:31N 39°33' E 002°38'0 0.0
2014-Dec-09 04:31N 39°33' E 002°38'0 0.0
2014-Dec-09 03:31N 39°33' E 002°38'0 0.0
2014-Dec-09 02:31N 39°33' E 002°38'0 0.0
2014-Dec-09 01:31N 39°33' E 002°38'0 0.0
2014-Dec-09 00:31N 39°33' E 002°38'0 0.0
2014-Dec-08 23:31N 39°33' E 002°38'0 0.0
2014-Dec-08 22:31N 39°33' E 002°38'0 0.0
2014-Dec-08 21:31N 39°33' E 002°38'0 0.0
2014-Dec-08 20:31N 39°33' E 002°38'0 0.0
2014-Dec-08 19:31N 39°33' E 002°38'0 0.0
2014-Dec-08 18:31N 39°33' E 002°38'0 0.0
2014-Dec-08 17:28N 39°33' E 002°38'0 0.0
2014-Dec-08 16:31N 39°33' E 002°38'0 0.0
2014-Dec-08 15:31N 39°33' E 002°38'0 0.0
2014-Dec-08 14:31N 39°33' E 002°38'0 0.0
2014-Dec-08 13:31N 39°33' E 002°38'0 0.0
2014-Dec-08 12:31N 39°33' E 002°38'0 0.0
2014-Dec-08 11:31N 39°33' E 002°38'0 0.0
2014-Dec-08 10:31N 39°33' E 002°38'0 0.0
2014-Dec-08 09:31N 39°33' E 002°38'0 0.0
2014-Dec-08 08:16N 39°33' E 002°38'0 0.0
2014-Dec-08 07:31N 39°33' E 002°38'0 0.0
2014-Dec-08 06:31N 39°33' E 002°38'0 0.0
2014-Dec-08 05:31N 39°33' E 002°38'0 0.0
2014-Dec-08 04:31N 39°33' E 002°38'0 0.0
2014-Dec-08 03:28N 39°33' E 002°38'0 0.0
2014-Dec-08 02:31N 39°33' E 002°38'0 0.0
2014-Dec-08 01:31N 39°33' E 002°38'0 0.0
2014-Dec-08 00:31N 39°33' E 002°38'0 0.0
2014-Dec-07 23:31N 39°33' E 002°38'0 0.0
2014-Dec-07 22:31N 39°33' E 002°38'0 0.0
2014-Dec-07 21:31N 39°33' E 002°38'0 0.0
2014-Dec-07 20:31N 39°33' E 002°38'0 0.0
2014-Dec-07 19:31N 39°33' E 002°38'0 0.0
2014-Dec-07 18:31N 39°33' E 002°38'0 0.0
2014-Dec-07 17:31N 39°33' E 002°38'0 0.0
2014-Dec-07 16:31N 39°33' E 002°38'0 0.0
2014-Dec-07 15:31N 39°33' E 002°38'0 0.0
2014-Dec-07 14:31N 39°33' E 002°38'0 0.0
2014-Dec-07 13:31N 39°33' E 002°38'0 0.0
2014-Dec-07 12:31N 39°33' E 002°38'0 0.0
2014-Dec-07 11:31N 39°33' E 002°38'0 0.0
2014-Dec-07 10:31N 39°33' E 002°38'0 0.0
2014-Dec-07 09:31N 39°33' E 002°38'0 0.0
2014-Dec-07 08:31N 39°33' E 002°38'0 0.0
2014-Dec-07 07:31N 39°33' E 002°38'0 0.0
2014-Dec-07 06:31N 39°33' E 002°38'0 0.0
2014-Dec-07 05:31N 39°33' E 002°38'0 0.0
2014-Dec-07 04:31N 39°33' E 002°38'0 0.0
2014-Dec-07 03:31N 39°33' E 002°38'0 0.0
2014-Dec-07 02:31N 39°33' E 002°38'0 0.0
2014-Dec-07 01:31N 39°33' E 002°38'0 0.0
2014-Dec-07 00:31N 39°33' E 002°38'0 0.0
2014-Dec-06 23:31N 39°33' E 002°38'0 0.0
2014-Dec-06 22:31N 39°33' E 002°38'0 0.0
2014-Dec-06 21:31N 39°33' E 002°38'0 0.0
2014-Dec-06 20:31N 39°33' E 002°38'0 0.0
2014-Dec-06 19:31N 39°33' E 002°38'0 0.0
2014-Dec-06 18:33N 39°33' E 002°38'0 0.0
2014-Dec-06 17:33N 39°33' E 002°38'0 0.0
2014-Dec-06 16:33N 39°33' E 002°38'0 0.0
2014-Dec-06 15:33N 39°33' E 002°38'0 0.0
2014-Dec-06 14:33N 39°33' E 002°38'0 0.0
2014-Dec-06 13:33N 39°33' E 002°38'0 0.0
2014-Dec-06 12:30N 39°33' E 002°38'0 0.0
2014-Dec-06 11:33N 39°33' E 002°38'0 0.0
2014-Dec-06 10:33N 39°33' E 002°38'0 0.0
2014-Dec-06 09:33N 39°33' E 002°38'0 0.0
2014-Dec-06 08:33N 39°33' E 002°38'0 0.0
2014-Dec-06 07:33N 39°33' E 002°38'0 0.0
2014-Dec-06 06:33N 39°33' E 002°38'0 0.0
2014-Dec-06 05:33N 39°33' E 002°38'0 0.0
2014-Dec-06 04:33N 39°33' E 002°38'0 0.0
2014-Dec-06 03:33N 39°33' E 002°38'0 0.0
2014-Dec-06 02:33N 39°33' E 002°38'0 0.0
2014-Dec-06 01:33N 39°33' E 002°38'0 0.0
2014-Dec-06 00:33N 39°33' E 002°38'0 0.0
2014-Dec-05 23:33N 39°33' E 002°38'0 0.0
2014-Dec-05 22:33N 39°33' E 002°38'0 0.0
2014-Dec-05 21:33N 39°33' E 002°38'0 0.0
2014-Dec-05 20:33N 39°33' E 002°38'0 0.0
2014-Dec-05 19:33N 39°33' E 002°38'0 0.0
2014-Dec-05 18:33N 39°33' E 002°38'0 0.0
2014-Dec-05 17:33N 39°33' E 002°38'0 0.0
2014-Dec-05 16:33N 39°33' E 002°38'0 0.0
2014-Dec-05 15:33N 39°33' E 002°38'0 0.0
2014-Dec-05 14:33N 39°33' E 002°38'0 0.0
2014-Dec-05 13:33N 39°33' E 002°38'0 0.0
2014-Dec-05 12:33N 39°33' E 002°38'0 0.0
2014-Dec-05 11:33N 39°33' E 002°38'0 0.0
2014-Dec-05 10:33N 39°33' E 002°38'0 0.0
2014-Dec-05 09:33N 39°33' E 002°38'0 0.0
2014-Dec-05 08:33N 39°33' E 002°38'0 0.0
2014-Dec-05 07:33N 39°33' E 002°38'0 0.0
2014-Dec-05 06:33N 39°33' E 002°38'0 0.0
2014-Dec-05 05:33N 39°33' E 002°38'0 0.0
2014-Dec-05 04:33N 39°33' E 002°38'0 0.0
2014-Dec-05 03:33N 39°33' E 002°38'0 0.0
2014-Dec-05 02:33N 39°33' E 002°38'0 0.0
2014-Dec-05 01:33N 39°33' E 002°38'0 0.0
2014-Dec-05 00:33N 39°33' E 002°38'0 0.0
2014-Dec-04 23:33N 39°33' E 002°38'0 0.0
2014-Dec-04 22:33N 39°33' E 002°38'0 0.0
2014-Dec-04 21:33N 39°33' E 002°38'0 0.0
2014-Dec-04 20:33N 39°33' E 002°38'0 0.0
2014-Dec-04 19:33N 39°33' E 002°38'0 0.0
2014-Dec-04 18:33N 39°33' E 002°38'0 0.0
2014-Dec-04 17:33N 39°33' E 002°38'0 0.0
2014-Dec-04 16:33N 39°33' E 002°38'0 0.0
2014-Dec-04 15:33N 39°33' E 002°38'0 0.0
2014-Dec-04 14:33N 39°33' E 002°38'  
Track history (hours):
 
Tides and Currents Weather Stations Pressure Air Temp Water Temp Dewpoint Dewpoint Depression Visibility Wind Speed Wind Dir Waves Ship Positions

Kathy C

Last reported at 2014-Dec-14 14:32 UTC. Time now 2014-Dec-22 11:22 UTC.
Position N 37°30' W 000°49'.

Length 106 m; draft 6.8 m.

Type: Cargo ship. MMSI: 235075591.

Date/timePositionNaut miles runAvg speedWind from/ knotsBaromVisibWave heightAir tempDewpointWater temp
2014-Dec-14 14:32N 37°30' W 000°49'9 9.0
2014-Dec-14 13:33N 37°34' W 000°59'1 0.8
2014-Dec-14 12:24N 37°34' W 000°58'0 0.0
2014-Dec-14 11:33N 37°34' W 000°58'0 0.0
2014-Dec-14 10:33N 37°34' W 000°58'0 0.0
2014-Dec-14 09:33N 37°34' W 000°58'0 0.0
2014-Dec-14 08:33N 37°34' W 000°58'0 0.0
2014-Dec-14 07:33N 37°34' W 000°58'0 0.0
2014-Dec-14 06:33N 37°34' W 000°58'0 0.0
2014-Dec-14 05:33N 37°34' W 000°58'0 0.0
2014-Dec-14 04:33N 37°34' W 000°58'0 0.0
2014-Dec-14 03:33N 37°34' W 000°58'0 0.0
2014-Dec-14 02:33N 37°34' W 000°58'0 0.0
2014-Dec-14 01:33N 37°34' W 000°58'0 0.0
2014-Dec-14 00:24N 37°34' W 000°58'0 0.0
2014-Dec-13 22:09N 37°34' W 000°58'0 0.0
2014-Dec-13 21:33N 37°34' W 000°58'0 0.0
2014-Dec-13 19:33N 37°34' W 000°58'0 0.0
2014-Dec-13 18:33N 37°34' W 000°58'6 6.1
2014-Dec-13 17:33N 37°31' W 001°04'4 0.1
2014-Dec-11 17:33N 37°33' W 001°01'3 2.5
2014-Dec-11 16:32N 37°34' W 000°58'0 0.0
2014-Dec-11 15:32N 37°34' W 000°58'0 0.0
2014-Dec-11 14:32N 37°34' W 000°58'0 0.0
2014-Dec-11 13:32N 37°34' W 000°58'0 0.0
2014-Dec-11 12:32N 37°34' W 000°58'0 0.0
2014-Dec-11 11:32N 37°34' W 000°58'0 0.0
2014-Dec-11 10:32N 37°34' W 000°58'0 0.0
2014-Dec-11 09:32N 37°34' W 000°58'0 0.0
2014-Dec-11 03:32N 37°34' W 000°58'0 0.0
2014-Dec-11 02:32N 37°34' W 000°58'0 0.0
2014-Dec-11 01:32N 37°34' W 000°58'0 0.0
2014-Dec-11 00:32N 37°34' W 000°58'0 0.0
2014-Dec-10 23:32N 37°34' W 000°58'0 0.0
2014-Dec-10 22:32N 37°34' W 000°58'0 0.0
2014-Dec-10 21:32N 37°34' W 000°58'0 0.0
2014-Dec-10 20:32N 37°34' W 000°58'0 0.0
2014-Dec-10 19:32N 37°34' W 000°58'0 0.0
2014-Dec-10 18:32N 37°34' W 000°58'0 0.0
2014-Dec-10 17:32N 37°34' W 000°58'0 0.0
2014-Dec-10 16:32N 37°34' W 000°58'0 0.0
2014-Dec-10 15:32N 37°34' W 000°58'0 0.0
2014-Dec-10 14:32N 37°34' W 000°58'0 0.0
2014-Dec-10 13:26N 37°34' W 000°58'3 4.0
2014-Dec-10 12:33N 37°31' W 000°56'16011.4
2014-Dec-09 22:31N 38°48' E 002°02'1111.4
2014-Dec-09 21:33N 38°56' E 002°12'1211.6
2014-Dec-09 20:33N 39°06' E 002°20'1212.0
2014-Dec-09 19:33N 39°17' E 002°26'1211.9
2014-Dec-09 18:33N 39°27' E 002°35'6 6.0
2014-Dec-09 17:31N 39°33' E 002°38'0 0.0
2014-Dec-09 16:31N 39°33' E 002°38'0 0.0
2014-Dec-09 15:31N 39°33' E 002°38'0 0.0
2014-Dec-09 14:31N 39°33' E 002°38'0 0.0
2014-Dec-09 13:31N 39°33' E 002°38'0 0.0
2014-Dec-09 12:31N 39°33' E 002°38'0 0.0
2014-Dec-09 11:25N 39°33' E 002°38'0 0.0
2014-Dec-09 10:31N 39°33' E 002°38'0 0.0
2014-Dec-09 09:31N 39°33' E 002°38'0 0.0
2014-Dec-09 08:31N 39°33' E 002°38'0 0.0
2014-Dec-09 07:31N 39°33' E 002°38'0 0.0
2014-Dec-09 06:28N 39°33' E 002°38'0 0.0
2014-Dec-09 05:31N 39°33' E 002°38'0 0.0
2014-Dec-09 04:31N 39°33' E 002°38'0 0.0
2014-Dec-09 03:31N 39°33' E 002°38'0 0.0
2014-Dec-09 02:31N 39°33' E 002°38'0 0.0
2014-Dec-09 01:31N 39°33' E 002°38'0 0.0
2014-Dec-09 00:31N 39°33' E 002°38'0 0.0
2014-Dec-08 23:31N 39°33' E 002°38'0 0.0
2014-Dec-08 22:31N 39°33' E 002°38'0 0.0
2014-Dec-08 21:31N 39°33' E 002°38'0 0.0
2014-Dec-08 20:31N 39°33' E 002°38'0 0.0
2014-Dec-08 19:31N 39°33' E 002°38'0 0.0
2014-Dec-08 18:31N 39°33' E 002°38'0 0.0
2014-Dec-08 17:28N 39°33' E 002°38'0 0.0
2014-Dec-08 16:31N 39°33' E 002°38'0 0.0
2014-Dec-08 15:31N 39°33' E 002°38'0 0.0
2014-Dec-08 14:31N 39°33' E 002°38'0 0.0
2014-Dec-08 13:31N 39°33' E 002°38'0 0.0
2014-Dec-08 12:31N 39°33' E 002°38'0 0.0
2014-Dec-08 11:31N 39°33' E 002°38'0 0.0
2014-Dec-08 10:31N 39°33' E 002°38'0 0.0
2014-Dec-08 09:31N 39°33' E 002°38'0 0.0
2014-Dec-08 08:16N 39°33' E 002°38'0 0.0
2014-Dec-08 07:31N 39°33' E 002°38'0 0.0
2014-Dec-08 06:31N 39°33' E 002°38'0 0.0
2014-Dec-08 05:31N 39°33' E 002°38'0 0.0
2014-Dec-08 04:31N 39°33' E 002°38'0 0.0
2014-Dec-08 03:28N 39°33' E 002°38'0 0.0
2014-Dec-08 02:31N 39°33' E 002°38'0 0.0
2014-Dec-08 01:31N 39°33' E 002°38'0 0.0
2014-Dec-08 00:31N 39°33' E 002°38'0 0.0
2014-Dec-07 23:31N 39°33' E 002°38'0 0.0
2014-Dec-07 22:31N 39°33' E 002°38'0 0.0
2014-Dec-07 21:31N 39°33' E 002°38'0 0.0
2014-Dec-07 20:31N 39°33' E 002°38'0 0.0
2014-Dec-07 19:31N 39°33' E 002°38'0 0.0
2014-Dec-07 18:31N 39°33' E 002°38'0 0.0
2014-Dec-07 17:31N 39°33' E 002°38'0 0.0
2014-Dec-07 16:31N 39°33' E 002°38'0 0.0
2014-Dec-07 15:31N 39°33' E 002°38'0 0.0
2014-Dec-07 14:31N 39°33' E 002°38'0 0.0
2014-Dec-07 13:31N 39°33' E 002°38'0 0.0
2014-Dec-07 12:31N 39°33' E 002°38'0 0.0
2014-Dec-07 11:31N 39°33' E 002°38'0 0.0
2014-Dec-07 10:31N 39°33' E 002°38'0 0.0
2014-Dec-07 09:31N 39°33' E 002°38'0 0.0
2014-Dec-07 08:31N 39°33' E 002°38'0 0.0
2014-Dec-07 07:31N 39°33' E 002°38'0 0.0
2014-Dec-07 06:31N 39°33' E 002°38'0 0.0
2014-Dec-07 05:31N 39°33' E 002°38'0 0.0
2014-Dec-07 04:31N 39°33' E 002°38'0 0.0
2014-Dec-07 03:31N 39°33' E 002°38'0 0.0
2014-Dec-07 02:31N 39°33' E 002°38'0 0.0
2014-Dec-07 01:31N 39°33' E 002°38'0 0.0
2014-Dec-07 00:31N 39°33' E 002°38'0 0.0
2014-Dec-06 23:31N 39°33' E 002°38'0 0.0
2014-Dec-06 22:31N 39°33' E 002°38'0 0.0
2014-Dec-06 21:31N 39°33' E 002°38'0 0.0
2014-Dec-06 20:31N 39°33' E 002°38'0 0.0
2014-Dec-06 19:31N 39°33' E 002°38'0 0.0
2014-Dec-06 18:33N 39°33' E 002°38'0 0.0
2014-Dec-06 17:33N 39°33' E 002°38'0 0.0
2014-Dec-06 16:33N 39°33' E 002°38'0 0.0
2014-Dec-06 15:33N 39°33' E 002°38'0 0.0
2014-Dec-06 14:33N 39°33' E 002°38'0 0.0
2014-Dec-06 13:33N 39°33' E 002°38'0 0.0
2014-Dec-06 12:30N 39°33' E 002°38'0 0.0
2014-Dec-06 11:33N 39°33' E 002°38'0 0.0
2014-Dec-06 10:33N 39°33' E 002°38'0 0.0
2014-Dec-06 09:33N 39°33' E 002°38'0 0.0
2014-Dec-06 08:33N 39°33' E 002°38'0 0.0
2014-Dec-06 07:33N 39°33' E 002°38'0 0.0
2014-Dec-06 06:33N 39°33' E 002°38'0 0.0
2014-Dec-06 05:33N 39°33' E 002°38'0 0.0
2014-Dec-06 04:33N 39°33' E 002°38'0 0.0
2014-Dec-06 03:33N 39°33' E 002°38'0 0.0
2014-Dec-06 02:33N 39°33' E 002°38'0 0.0
2014-Dec-06 01:33N 39°33' E 002°38'0 0.0
2014-Dec-06 00:33N 39°33' E 002°38'0 0.0
2014-Dec-05 23:33N 39°33' E 002°38'0 0.0
2014-Dec-05 22:33N 39°33' E 002°38'0 0.0
2014-Dec-05 21:33N 39°33' E 002°38'0 0.0
2014-Dec-05 20:33N 39°33' E 002°38'0 0.0
2014-Dec-05 19:33N 39°33' E 002°38'0 0.0
2014-Dec-05 18:33N 39°33' E 002°38'0 0.0
2014-Dec-05 17:33N 39°33' E 002°38'0 0.0
2014-Dec-05 16:33N 39°33' E 002°38'0 0.0
2014-Dec-05 15:33N 39°33' E 002°38'0 0.0
2014-Dec-05 14:33N 39°33' E 002°38'0 0.0
2014-Dec-05 13:33N 39°33' E 002°38'0 0.0
2014-Dec-05 12:33N 39°33' E 002°38'0 0.0
2014-Dec-05 11:33N 39°33' E 002°38'0 0.0
2014-Dec-05 10:33N 39°33' E 002°38'0 0.0
2014-Dec-05 09:33N 39°33' E 002°38'0 0.0
2014-Dec-05 08:33N 39°33' E 002°38'0 0.0
2014-Dec-05 07:33N 39°33' E 002°38'0 0.0
2014-Dec-05 06:33N 39°33' E 002°38'0 0.0
2014-Dec-05 05:33N 39°33' E 002°38'0 0.0
2014-Dec-05 04:33N 39°33' E 002°38'0 0.0
2014-Dec-05 03:33N 39°33' E 002°38'0 0.0
2014-Dec-05 02:33N 39°33' E 002°38'0 0.0
2014-Dec-05 01:33N 39°33' E 002°38'0 0.0
2014-Dec-05 00:33N 39°33' E 002°38'0 0.0
2014-Dec-04 23:33N 39°33' E 002°38'0 0.0
2014-Dec-04 22:33N 39°33' E 002°38'0 0.0
2014-Dec-04 21:33N 39°33' E 002°38'0 0.0
2014-Dec-04 20:33N 39°33' E 002°38'0 0.0
2014-Dec-04 19:33N 39°33' E 002°38'0 0.0
2014-Dec-04 18:33N 39°33' E 002°38'0 0.0
2014-Dec-04 17:33N 39°33' E 002°38'0 0.0
2014-Dec-04 16:33N 39°33' E 002°38'0 0.0
2014-Dec-04 15:33N 39°33' E 002°38'0 0.0
2014-Dec-04 14:33N 39°33' E 002°38'  

Dump ship's entire track history